Huvudsida
METAR-TAF:

METAR-TAF

Flygplatser :

Småland Airport

Växjö, Sverige

latitud: 56-51N, longitud: 014-50E, höjd: 199 m

Aktuellt väderrapport

Denna rapport gjordes för 23 minuter sedan, klockan 00:50 UTC
Vind 4 kt från väst
Temperatur 3°C
Fuktighet 75%
Tryck 1027 hPa
Sikt 10 km eller mer

METAR: ESMX 210050Z AUTO 28004KT 9999 NCD 03/M01 Q1027

Tid: 03:13 (01:13 UTC)

Väderprognos

Denna rapport gjordes för 10 timmar och 43 minuter sedan, klockan 14:30 UTC
Prognos gäller från 20 kl. 15 UTC till 20 kl. 18 UTC
Vind 4 kt från nordost
Sikt 10 km eller mer
Inga moln under 1 500 m eller inga cumulonimbus

TAF: ESMX 201430Z 2015/2018 04004KT CAVOK

Aktuella väderrapporter och prognoser från 4000 flygplatser (METAR- och TAF-rapporter).

De tillgängliga stationerna syns som gula och röda prickar på kartan.

För musen över prickarna för att se namnen på stationerna.

Klicka sedan för att få väderrapporter och prognoser.

För att ändra kartan: Klicka på de gröna knapparna med ett svart kors på för att zooma in; den gröna knappen med ett streck på för att zooma ut; eller på de gröna pilarna för angränsande kartor.


METAR-TAF: